EBFS

Florennes Air Base Airport

Florennes, Belgium
METAR EBFS 200225Z AUTO 01004KT 0200 FG FEW150/// BKN220/// 07/06 Q1028 RED
Observed Flight Rules
Oct-20 @ 02:25 UTC (25 minutes ago) Instrument Flight Rules
Wind Visibility Clouds Conditions
10° at 4 knots 193 meters
  • Few at 15,000' AGL
  • Broken at 22,000' AGL
  • Fog
Temperatures Readings
Current 7°C / 45°F
Dewpoint 6°C / 43°F
Humidity 93%
Altimeter 30.35" Hg
Pressure 1028 hPa
Elevation 299
METAR EBFS 200225Z AUTO 01004KT 0200 FG FEW150/// BKN220/// 07/06 Q1028 RED
Observed Flight Rules
Oct-20 @ 02:25 UTC
(25 minutes ago)
LIFR
Wind Visibility
10° at 4 knots 193 meters
Clouds
  • Few at 15,000' AGL
  • Broken at 22,000' AGL
Conditions
  • Fog
Temperature Dewpoint
7°C / 45°F 6°C / 43°F
Humidity Altimeter Pressure
93% 30.35" Hg 1028 hPa